createdAt,value
2023-02-26T00:01:23.168Z,101109.13
2023-02-26T00:03:52.261Z,101103.56
2023-02-26T00:06:20.253Z,101107.94
2023-02-26T00:08:47.814Z,101117.09
2023-02-26T00:11:15.979Z,101116.53
2023-02-26T00:13:45.663Z,101120.59
2023-02-26T00:16:26.757Z,101121.69
2023-02-26T00:18:56.283Z,101129.00
2023-02-26T00:21:25.300Z,101132.28
2023-02-26T00:23:53.133Z,101144.22
2023-02-26T00:26:21.214Z,101138.41
2023-02-26T00:28:50.001Z,101149.81
2023-02-26T00:31:20.880Z,101142.03
2023-02-26T00:33:48.857Z,101143.06
2023-02-26T00:36:23.009Z,101134.34
2023-02-26T00:39:02.405Z,101135.56
2023-02-26T00:41:30.424Z,101139.72
2023-02-26T00:43:58.400Z,101154.06
2023-02-26T00:46:30.962Z,101143.56
2023-02-26T00:49:04.826Z,101150.13
2023-02-26T00:51:38.300Z,101149.84
2023-02-26T00:54:10.704Z,101157.72
2023-02-26T00:56:38.581Z,101155.44
2023-02-26T00:59:06.093Z,101163.50
2023-02-26T01:01:33.614Z,101167.34
2023-02-26T01:04:01.673Z,101169.19
2023-02-26T01:06:33.712Z,101179.16
2023-02-26T01:09:05.220Z,101175.69
2023-02-26T01:11:33.152Z,101174.00
2023-02-26T01:14:01.123Z,101180.53
2023-02-26T01:16:29.835Z,101179.38
2023-02-26T01:19:01.414Z,101185.34
2023-02-26T01:21:34.616Z,101185.38
2023-02-26T01:24:04.712Z,101185.69
2023-02-26T01:26:32.520Z,101182.19
2023-02-26T01:29:00.361Z,101183.69
2023-02-26T01:31:36.486Z,101186.84
2023-02-26T01:34:08.166Z,101187.13
2023-02-26T01:36:41.582Z,101185.84
2023-02-26T01:39:15.900Z,101192.00
2023-02-26T01:41:45.992Z,101200.44
2023-02-26T01:44:16.892Z,101207.56
2023-02-26T01:47:05.508Z,101196.44
2023-02-26T01:49:33.633Z,101215.06
2023-02-26T01:52:03.503Z,101217.66
2023-02-26T01:54:32.716Z,101218.41
2023-02-26T01:57:04.816Z,101220.75
2023-02-26T01:59:33.483Z,101217.00
2023-02-26T02:02:04.251Z,101222.31
2023-02-26T02:04:32.028Z,101222.78
2023-02-26T02:07:00.232Z,101234.38
2023-02-26T02:09:29.020Z,101245.38
2023-02-26T02:12:13.027Z,101235.81
2023-02-26T02:14:47.785Z,101249.94
2023-02-26T02:17:19.480Z,101244.78
2023-02-26T02:20:06.327Z,101249.19
2023-02-26T02:22:42.141Z,101252.59
2023-02-26T02:25:22.024Z,101258.69
2023-02-26T02:27:55.927Z,101259.38
2023-02-26T02:30:32.524Z,101251.97
2023-02-26T02:33:03.666Z,101257.38
2023-02-26T02:35:34.867Z,101266.41
2023-02-26T02:38:06.933Z,101261.91
2023-02-26T02:40:35.914Z,101257.78
2023-02-26T02:43:06.049Z,101274.00
2023-02-26T02:45:39.476Z,101280.38
2023-02-26T02:48:12.144Z,101280.88
2023-02-26T02:50:42.787Z,101280.38
2023-02-26T02:53:12.735Z,101287.84
2023-02-26T02:55:44.404Z,101296.53
2023-02-26T02:58:14.207Z,101298.16
2023-02-26T03:00:44.708Z,101302.56
2023-02-26T03:03:17.435Z,101308.94
2023-02-26T03:05:45.039Z,101315.03
2023-02-26T03:08:14.949Z,101314.56
2023-02-26T03:10:42.673Z,101321.13
2023-02-26T03:13:16.454Z,101322.19
2023-02-26T03:15:47.378Z,101327.22
2023-02-26T03:18:21.327Z,101329.44
2023-02-26T03:20:57.199Z,101329.13
2023-02-26T03:23:28.838Z,101337.63
2023-02-26T03:26:03.587Z,101339.41
2023-02-26T03:28:34.120Z,101346.34
2023-02-26T03:31:05.675Z,101345.03
2023-02-26T03:33:39.900Z,101352.16
2023-02-26T03:36:09.881Z,101359.13
2023-02-26T03:38:40.306Z,101356.09
2023-02-26T03:41:10.118Z,101368.09
2023-02-26T03:43:40.990Z,101367.09
2023-02-26T03:46:11.988Z,101372.72
2023-02-26T03:48:40.841Z,101373.84
2023-02-26T03:51:12.079Z,101378.53
2023-02-26T03:53:43.837Z,101375.72
2023-02-26T03:56:15.791Z,101379.31
2023-02-26T03:58:43.342Z,101378.72
2023-02-26T04:01:13.811Z,101388.84
2023-02-26T04:03:46.355Z,101390.47
2023-02-26T04:06:14.125Z,101393.53
2023-02-26T04:08:41.792Z,101398.63
2023-02-26T04:11:11.891Z,101403.16
2023-02-26T04:13:39.319Z,101405.31
2023-02-26T04:16:07.425Z,101404.03
2023-02-26T04:18:34.805Z,101410.81
2023-02-26T04:21:04.491Z,101411.47
2023-02-26T04:23:32.016Z,101409.09
2023-02-26T04:25:59.653Z,101421.38
2023-02-26T04:28:27.037Z,101422.69
2023-02-26T04:30:54.641Z,101425.19
2023-02-26T04:33:23.170Z,101428.47
2023-02-26T04:35:50.674Z,101435.63
2023-02-26T04:38:19.449Z,101431.13
2023-02-26T04:40:46.928Z,101431.44
2023-02-26T04:43:14.298Z,101442.09
2023-02-26T04:45:41.674Z,101443.19
2023-02-26T04:48:09.135Z,101446.53
2023-02-26T04:50:36.619Z,101449.72
2023-02-26T04:53:04.140Z,101443.75
2023-02-26T04:55:33.013Z,101442.75
2023-02-26T04:58:00.387Z,101452.69
2023-02-26T05:00:27.987Z,101460.53
2023-02-26T05:02:55.505Z,101462.16
2023-02-26T05:05:23.092Z,101461.31
2023-02-26T05:07:50.511Z,101464.97
2023-02-26T05:10:18.090Z,101470.63
2023-02-26T05:12:46.962Z,101478.72
2023-02-26T05:15:14.348Z,101479.72
2023-02-26T05:17:41.728Z,101482.69
2023-02-26T05:20:11.380Z,101492.78
2023-02-26T05:22:39.493Z,101489.81
2023-02-26T05:25:07.808Z,101491.00
2023-02-26T05:27:35.470Z,101487.50
2023-02-26T05:30:05.300Z,101493.78
2023-02-26T05:32:32.863Z,101499.91
2023-02-26T05:35:00.351Z,101501.25
2023-02-26T05:37:27.884Z,101510.19
2023-02-26T05:39:55.356Z,101509.53
2023-02-26T05:42:22.875Z,101507.69
2023-02-26T05:44:50.390Z,101510.34
2023-02-26T05:47:19.184Z,101524.09
2023-02-26T05:49:46.547Z,101516.16
2023-02-26T05:52:13.899Z,101521.63
2023-02-26T05:54:41.428Z,101532.38
2023-02-26T05:57:08.991Z,101524.91
2023-02-26T05:59:36.405Z,101527.75
2023-02-26T06:02:04.065Z,101544.16
2023-02-26T06:04:32.903Z,101544.63
2023-02-26T06:07:00.358Z,101546.63
2023-02-26T06:09:27.812Z,101553.91
2023-02-26T06:11:55.260Z,101559.19
2023-02-26T06:14:22.927Z,101570.47
2023-02-26T06:16:50.445Z,101569.28
2023-02-26T06:19:17.981Z,101580.09
2023-02-26T06:21:46.970Z,101587.19
2023-02-26T06:24:14.860Z,101592.97
2023-02-26T06:26:42.330Z,101591.81
2023-02-26T06:29:09.824Z,101595.13
2023-02-26T06:31:37.342Z,101596.31
2023-02-26T06:34:04.798Z,101602.22
2023-02-26T06:36:32.248Z,101604.41
2023-02-26T06:39:01.073Z,101601.41
2023-02-26T06:41:28.543Z,101609.22
2023-02-26T06:43:56.006Z,101605.88
2023-02-26T06:46:24.104Z,101613.16
2023-02-26T06:48:51.817Z,101614.84
2023-02-26T06:51:19.331Z,101618.13
2023-02-26T06:53:46.854Z,101623.13
2023-02-26T06:56:15.809Z,101629.59
2023-02-26T06:58:43.339Z,101629.41
2023-02-26T07:01:11.028Z,101638.97
2023-02-26T07:03:38.528Z,101637.16
2023-02-26T07:06:25.938Z,101635.97
2023-02-26T07:08:54.722Z,101648.72
2023-02-26T07:11:23.685Z,101648.84
2023-02-26T07:13:52.015Z,101656.81
2023-02-26T07:16:19.651Z,101656.72
2023-02-26T07:18:47.164Z,101656.28
2023-02-26T07:21:14.565Z,101662.22
2023-02-26T07:23:42.087Z,101661.72
2023-02-26T07:26:09.892Z,101663.72
2023-02-26T07:28:38.675Z,101671.34
2023-02-26T07:31:06.595Z,101677.91
2023-02-26T07:33:35.198Z,101670.31
2023-02-26T07:36:02.692Z,101684.88
2023-02-26T07:38:30.040Z,101690.50
2023-02-26T07:40:57.650Z,101692.97
2023-02-26T07:43:26.193Z,101696.28
2023-02-26T07:45:54.988Z,101703.59
2023-02-26T07:48:22.700Z,101709.78
2023-02-26T07:50:52.724Z,101717.09
2023-02-26T07:53:20.108Z,101712.09
2023-02-26T07:55:47.920Z,101722.59
2023-02-26T07:58:15.458Z,101726.88
2023-02-26T08:00:42.961Z,101724.34
2023-02-26T08:03:11.837Z,101730.97
2023-02-26T08:05:39.375Z,101739.47
2023-02-26T08:08:06.990Z,101744.31
2023-02-26T08:10:34.502Z,101747.94
2023-02-26T08:13:01.908Z,101755.28
2023-02-26T08:15:29.492Z,101751.97
2023-02-26T08:17:56.966Z,101751.38
2023-02-26T08:20:25.803Z,101745.72
2023-02-26T08:22:53.314Z,101753.22
2023-02-26T08:25:21.002Z,101752.06
2023-02-26T08:27:48.540Z,101753.06
2023-02-26T08:30:16.300Z,101757.91
2023-02-26T08:32:45.970Z,101754.75
2023-02-26T08:35:13.574Z,101758.78
2023-02-26T08:37:42.752Z,101765.59
2023-02-26T08:40:15.056Z,101769.88
2023-02-26T08:42:42.825Z,101769.19
2023-02-26T08:45:11.125Z,101768.56
2023-02-26T08:47:53.919Z,101776.34
2023-02-26T08:50:24.230Z,101781.31
2023-02-26T08:52:53.551Z,101789.31
2023-02-26T08:55:21.212Z,101792.78
2023-02-26T08:57:48.756Z,101797.94
2023-02-26T09:00:18.643Z,101804.75
2023-02-26T09:02:46.642Z,101794.63
2023-02-26T09:05:14.983Z,101803.59
2023-02-26T09:07:42.725Z,101797.28
2023-02-26T09:10:13.723Z,101804.06
2023-02-26T09:12:41.414Z,101803.88
2023-02-26T09:15:10.968Z,101817.69
2023-02-26T09:17:38.990Z,101815.72
2023-02-26T09:20:07.735Z,101825.50
2023-02-26T09:22:35.295Z,101828.16
2023-02-26T09:25:03.342Z,101835.81
2023-02-26T09:27:32.203Z,101838.28
2023-02-26T09:29:59.820Z,101835.47
2023-02-26T09:32:27.743Z,101837.94
2023-02-26T09:34:55.777Z,101847.41
2023-02-26T09:37:23.294Z,101849.75
2023-02-26T09:39:52.681Z,101850.75
2023-02-26T09:42:30.716Z,101856.03
2023-02-26T09:45:00.408Z,101862.38
2023-02-26T09:47:31.443Z,101860.88
2023-02-26T09:50:05.951Z,101855.69
2023-02-26T09:52:37.283Z,101871.31
2023-02-26T09:55:11.369Z,101867.34
2023-02-26T09:57:43.051Z,101881.78
2023-02-26T10:00:24.789Z,101866.00
2023-02-26T10:02:58.327Z,101874.47
2023-02-26T10:05:31.344Z,101878.97
2023-02-26T10:08:00.817Z,101886.25
2023-02-26T10:10:35.064Z,101884.44
2023-02-26T10:13:02.627Z,101889.75
2023-02-26T10:15:38.017Z,101887.09
2023-02-26T10:18:10.860Z,101890.28
2023-02-26T10:20:42.082Z,101886.09
2023-02-26T10:23:21.030Z,101890.25
2023-02-26T10:25:51.010Z,101897.41
2023-02-26T10:28:35.745Z,101908.84
2023-02-26T10:31:09.504Z,101894.22
2023-02-26T10:33:42.644Z,101911.69
2023-02-26T10:36:28.928Z,101910.84
2023-02-26T10:39:09.000Z,101907.53
2023-02-26T10:41:40.857Z,101919.81
2023-02-26T10:44:18.154Z,101916.84
2023-02-26T10:46:54.916Z,101907.53
2023-02-26T10:49:54.241Z,101918.81
2023-02-26T10:52:25.466Z,101923.78
2023-02-26T10:55:04.949Z,101924.81
2023-02-26T10:57:35.022Z,101915.31
2023-02-26T11:00:03.043Z,101927.94
2023-02-26T11:02:38.491Z,101938.22
2023-02-26T11:05:08.454Z,101930.44
2023-02-26T11:07:38.190Z,101933.72
2023-02-26T11:10:09.178Z,101920.78
2023-02-26T11:12:37.983Z,101930.09
2023-02-26T11:15:06.385Z,101936.06
2023-02-26T11:17:36.029Z,101936.75
2023-02-26T11:20:08.957Z,101944.03
2023-02-26T11:22:37.797Z,101936.59
2023-02-26T11:25:06.216Z,101946.38
2023-02-26T11:27:36.924Z,101938.91
2023-02-26T11:30:07.909Z,101940.41
2023-02-26T11:32:39.547Z,101932.44
2023-02-26T11:35:09.455Z,101937.06
2023-02-26T11:37:40.622Z,101933.25
2023-02-26T11:40:15.455Z,101931.09
2023-02-26T11:42:45.820Z,101924.28
2023-02-26T11:45:15.064Z,101919.81
2023-02-26T11:47:43.938Z,101921.13
2023-02-26T11:50:16.800Z,101926.63
2023-02-26T11:52:45.738Z,101926.13
2023-02-26T11:55:20.655Z,101927.06
2023-02-26T11:57:53.861Z,101931.34
2023-02-26T12:00:30.931Z,101929.91
2023-02-26T12:03:04.260Z,101922.72
2023-02-26T12:05:32.397Z,101925.75
2023-02-26T12:07:59.776Z,101925.59
2023-02-26T12:10:33.180Z,101931.06
2023-02-26T12:13:08.697Z,101932.06
2023-02-26T12:15:40.737Z,101922.03
2023-02-26T12:18:20.017Z,101928.19
2023-02-26T12:20:54.690Z,101927.38
2023-02-26T12:23:38.402Z,101933.59
2023-02-26T12:26:21.667Z,101939.47
2023-02-26T12:29:00.927Z,101937.75
2023-02-26T12:31:47.501Z,101941.59
2023-02-26T12:34:30.406Z,101940.59
2023-02-26T12:37:06.695Z,101937.47
2023-02-26T12:39:44.111Z,101942.00
2023-02-26T12:42:19.806Z,101944.28
2023-02-26T12:45:13.745Z,101940.16
2023-02-26T12:47:47.587Z,101946.81
2023-02-26T12:50:32.954Z,101943.63
2023-02-26T12:53:14.268Z,101959.28
2023-02-26T12:55:52.100Z,101954.75
2023-02-26T12:58:55.605Z,101957.94
2023-02-26T13:01:56.063Z,101949.91
2023-02-26T13:05:04.253Z,101947.63
2023-02-26T13:07:50.756Z,101949.47
2023-02-26T13:10:27.961Z,101942.16
2023-02-26T13:13:07.242Z,101944.13
2023-02-26T13:15:48.732Z,101941.31
2023-02-26T13:18:19.341Z,101946.81
2023-02-26T13:20:54.094Z,101931.38
2023-02-26T13:23:24.783Z,101940.88
2023-02-26T13:25:55.261Z,101943.31
2023-02-26T13:28:25.645Z,101943.63
2023-02-26T13:30:55.760Z,101943.00
2023-02-26T13:33:26.138Z,101948.25
2023-02-26T13:35:54.691Z,101949.94
2023-02-26T13:38:29.369Z,101940.63
2023-02-26T13:41:04.297Z,101944.94
2023-02-26T13:43:51.410Z,101940.53
2023-02-26T13:46:27.617Z,101940.66
2023-02-26T13:49:00.511Z,101940.34
2023-02-26T13:51:35.397Z,101946.28
2023-02-26T13:54:09.782Z,101947.25
2023-02-26T13:56:49.627Z,101944.63
2023-02-26T13:59:31.788Z,101940.63
2023-02-26T14:02:02.184Z,101956.94
2023-02-26T14:04:31.174Z,101953.25
2023-02-26T14:07:00.047Z,101950.81
2023-02-26T14:09:37.720Z,101939.66
2023-02-26T14:12:06.078Z,101953.63
2023-02-26T14:14:38.630Z,101951.47
2023-02-26T14:17:39.330Z,101953.97
2023-02-26T14:20:23.009Z,101955.22
2023-02-26T14:23:09.477Z,101957.56
2023-02-26T14:25:40.157Z,101954.22
2023-02-26T14:28:41.714Z,101948.25
2023-02-26T14:31:19.689Z,101952.47
2023-02-26T14:33:49.960Z,101950.13
2023-02-26T14:36:21.358Z,101956.56
2023-02-26T14:38:49.927Z,101958.19
2023-02-26T14:41:27.293Z,101955.06
2023-02-26T14:44:00.091Z,101948.72
2023-02-26T14:46:28.342Z,101952.56
2023-02-26T14:48:55.897Z,101961.53
2023-02-26T14:51:40.331Z,101955.91
2023-02-26T14:54:18.615Z,101962.66
2023-02-26T14:56:55.445Z,101962.41
2023-02-26T15:05:17.153Z,101948.56
2023-02-26T15:07:53.369Z,101963.03
2023-02-26T15:10:30.594Z,101957.56
2023-02-26T15:13:32.263Z,101963.22
2023-02-26T15:16:21.559Z,101956.94
2023-02-26T15:19:03.554Z,101968.75
2023-02-26T15:21:36.986Z,101974.16
2023-02-26T15:24:20.175Z,101966.50
2023-02-26T15:26:51.807Z,101967.22
2023-02-26T15:29:23.852Z,101967.88
2023-02-26T15:31:57.297Z,101972.19
2023-02-26T15:34:28.597Z,101979.19
2023-02-26T15:37:00.787Z,101974.88
2023-02-26T15:39:29.415Z,101975.50
2023-02-26T15:41:57.590Z,101987.78
2023-02-26T15:44:29.703Z,101977.31
2023-02-26T15:47:03.376Z,101991.78
2023-02-26T15:49:35.026Z,101982.00
2023-02-26T15:52:07.156Z,101984.81
2023-02-26T15:54:36.886Z,101983.50
2023-02-26T15:57:07.366Z,101980.19
2023-02-26T15:59:48.870Z,101995.50
2023-02-26T16:02:22.671Z,101988.31
2023-02-26T16:04:55.115Z,101991.84
2023-02-26T16:07:25.150Z,101984.06
2023-02-26T16:09:55.373Z,101998.66
2023-02-26T16:12:26.341Z,101993.22
2023-02-26T16:14:58.425Z,101994.03
2023-02-26T16:17:28.208Z,102000.19
2023-02-26T16:20:04.491Z,101993.69
2023-02-26T16:22:35.485Z,101998.66
2023-02-26T16:25:07.343Z,101997.56
2023-02-26T16:27:43.054Z,102005.19
2023-02-26T16:30:19.724Z,102000.72
2023-02-26T16:32:53.517Z,102010.19
2023-02-26T16:35:24.399Z,102017.81
2023-02-26T16:37:55.286Z,102019.81
2023-02-26T16:40:30.102Z,102026.13
2023-02-26T16:43:08.475Z,102024.50
2023-02-26T16:45:50.920Z,102031.13
2023-02-26T16:48:23.988Z,102030.44
2023-02-26T16:51:09.351Z,102030.44
2023-02-26T16:53:43.488Z,102038.09
2023-02-26T16:56:16.970Z,102042.75
2023-02-26T16:58:45.555Z,102044.59
2023-02-26T17:01:17.586Z,102045.41
2023-02-26T17:03:53.070Z,102045.75
2023-02-26T17:06:23.461Z,102047.09
2023-02-26T17:08:58.147Z,102055.72
2023-02-26T17:11:33.145Z,102053.06
2023-02-26T17:14:23.518Z,102060.88
2023-02-26T17:16:53.400Z,102069.69
2023-02-26T17:19:25.101Z,102077.34
2023-02-26T17:21:59.943Z,102079.00
2023-02-26T17:24:31.759Z,102080.13
2023-02-26T17:27:04.994Z,102086.31
2023-02-26T17:29:37.298Z,102084.13
2023-02-26T17:32:14.948Z,102084.28
2023-02-26T17:34:49.564Z,102091.28
2023-02-26T17:37:23.742Z,102092.63
2023-02-26T17:39:51.921Z,102099.69
2023-02-26T17:42:21.550Z,102098.25
2023-02-26T17:44:55.727Z,102103.75
2023-02-26T17:48:09.776Z,102112.59
2023-02-26T17:50:44.834Z,102109.22
2023-02-26T17:53:16.951Z,102104.78
2023-02-26T17:55:47.316Z,102109.38
2023-02-26T17:58:19.731Z,102112.88
2023-02-26T18:00:56.949Z,102120.72
2023-02-26T18:03:28.971Z,102124.66
2023-02-26T18:06:03.685Z,102120.38
2023-02-26T18:08:33.660Z,102130.66
2023-02-26T18:11:03.185Z,102127.16
2023-02-26T18:13:31.593Z,102137.63
2023-02-26T18:16:01.083Z,102132.75
2023-02-26T18:18:31.959Z,102131.25
2023-02-26T18:21:03.198Z,102135.09
2023-02-26T18:23:31.385Z,102136.75
2023-02-26T18:25:59.539Z,102145.06
2023-02-26T18:28:28.433Z,102145.50
2023-02-26T18:30:57.205Z,102139.91
2023-02-26T18:33:26.230Z,102143.03
2023-02-26T18:35:58.453Z,102142.78
2023-02-26T18:38:28.411Z,102152.13
2023-02-26T18:40:56.017Z,102144.28
2023-02-26T18:43:23.543Z,102154.09
2023-02-26T18:45:52.986Z,102146.38
2023-02-26T18:48:21.797Z,102158.31
2023-02-26T18:50:49.810Z,102159.97
2023-02-26T18:53:23.151Z,102158.47
2023-02-26T18:55:51.880Z,102160.63
2023-02-26T18:58:19.724Z,102156.47
2023-02-26T19:00:47.803Z,102164.47
2023-02-26T19:03:15.341Z,102166.75
2023-02-26T19:05:43.004Z,102157.31
2023-02-26T19:08:11.031Z,102163.13
2023-02-26T19:10:40.073Z,102163.03
2023-02-26T19:13:07.699Z,102168.34
2023-02-26T19:15:35.251Z,102159.81
2023-02-26T19:32:38.242Z,102179.56
2023-02-26T19:35:07.809Z,102173.06
2023-02-26T19:37:35.653Z,102179.06
2023-02-26T19:40:06.743Z,102172.06
2023-02-26T19:42:35.381Z,102171.41
2023-02-26T19:45:02.833Z,102173.06
2023-02-26T19:47:30.214Z,102171.25
2023-02-26T19:49:59.154Z,102169.09
2023-02-26T19:52:28.111Z,102173.38
2023-02-26T19:54:55.640Z,102175.91
2023-02-26T19:57:23.124Z,102181.72
2023-02-26T19:59:50.676Z,102176.56
2023-02-26T20:02:18.263Z,102185.22
2023-02-26T20:04:46.254Z,102183.03
2023-02-26T20:07:15.142Z,102184.53
2023-02-26T20:09:43.189Z,102189.69
2023-02-26T20:12:10.691Z,102192.34
2023-02-26T20:14:38.224Z,102193.31
2023-02-26T20:17:07.936Z,102195.31
2023-02-26T20:19:35.455Z,102198.47
2023-02-26T20:22:02.987Z,102191.34
2023-02-26T20:24:34.243Z,102187.84
2023-02-26T20:27:03.681Z,102186.16
2023-02-26T20:29:31.195Z,102195.00
2023-02-26T20:31:59.211Z,102201.44
2023-02-26T20:34:26.923Z,102191.16
2023-02-26T20:36:55.770Z,102200.78
2023-02-26T20:39:23.618Z,102193.97
2023-02-26T20:41:52.452Z,102192.28
2023-02-26T20:44:20.017Z,102206.59
2023-02-26T20:46:47.659Z,102205.41
2023-02-26T20:49:15.117Z,102207.41
2023-02-26T20:51:42.892Z,102216.22
2023-02-26T20:54:12.744Z,102212.22
2023-02-26T20:56:40.121Z,102218.50
2023-02-26T20:59:09.533Z,102214.19
2023-02-26T21:01:36.956Z,102222.50
2023-02-26T21:04:05.442Z,102218.81
2023-02-26T21:06:33.674Z,102220.16
2023-02-26T21:09:03.150Z,102228.44
2023-02-26T21:11:32.003Z,102227.88
2023-02-26T21:13:59.598Z,102231.38
2023-02-26T21:16:28.944Z,102229.28
2023-02-26T21:18:56.908Z,102227.94
2023-02-26T21:21:24.264Z,102241.06
2023-02-26T21:23:53.051Z,102232.44
2023-02-26T21:26:20.846Z,102240.41
2023-02-26T21:28:48.925Z,102238.34
2023-02-26T21:31:17.864Z,102243.69
2023-02-26T21:33:46.915Z,102243.38
2023-02-26T21:36:15.640Z,102244.38
2023-02-26T21:38:43.010Z,102243.31
2023-02-26T21:41:10.452Z,102245.97
2023-02-26T21:43:37.919Z,102255.78
2023-02-26T21:46:05.682Z,102253.28
2023-02-26T21:48:33.486Z,102253.94
2023-02-26T21:51:03.599Z,102252.28
2023-02-26T21:53:31.427Z,102248.59
2023-02-26T21:55:58.873Z,102253.56
2023-02-26T21:58:26.433Z,102263.69
2023-02-26T22:00:53.964Z,102263.19
2023-02-26T22:03:21.542Z,102265.50
2023-02-26T22:05:51.304Z,102271.94
2023-02-26T22:08:20.035Z,102272.09
2023-02-26T22:10:47.398Z,102275.88
2023-02-26T22:13:14.830Z,102270.09
2023-02-26T22:15:42.343Z,102276.75
2023-02-26T22:18:09.745Z,102272.59
2023-02-26T22:20:37.428Z,102267.78
2023-02-26T22:23:28.474Z,102268.59
2023-02-26T22:25:56.429Z,102273.44
2023-02-26T22:28:23.980Z,102275.59
2023-02-26T22:30:51.881Z,102269.38
2023-02-26T22:33:19.647Z,102279.84
2023-02-26T22:59:59.162Z,102297.31
2023-02-26T23:02:27.217Z,102292.13
2023-02-26T23:04:59.055Z,102303.56
2023-02-26T23:07:26.964Z,102303.09
2023-02-26T23:10:07.095Z,102297.88
2023-02-26T23:12:42.697Z,102292.53
2023-02-26T23:15:12.716Z,102286.47
2023-02-26T23:25:51.140Z,102292.94
2023-02-26T23:28:29.522Z,102285.50
